createdAt,value
2019-02-14T00:02:21.771Z,7.27
2019-02-14T00:04:59.101Z,7.60
2019-02-14T00:07:32.990Z,7.40
2019-02-14T00:10:08.858Z,7.40
2019-02-14T00:12:43.671Z,6.53
2019-02-14T00:15:17.991Z,7.33
2019-02-14T00:17:50.737Z,7.13
2019-02-14T00:20:25.040Z,7.57
2019-02-14T00:22:59.014Z,7.43
2019-02-14T00:25:32.325Z,7.33
2019-02-14T00:28:04.833Z,7.97
2019-02-14T00:30:38.067Z,7.37
2019-02-14T00:33:10.796Z,7.60
2019-02-14T00:35:43.393Z,7.60
2019-02-14T00:38:17.269Z,7.17
2019-02-14T00:40:49.806Z,7.28
2019-02-14T00:43:22.325Z,7.53
2019-02-14T00:45:56.953Z,7.60
2019-02-14T00:48:29.471Z,8.00
2019-02-14T00:51:04.801Z,7.80
2019-02-14T00:53:39.550Z,7.53
2019-02-14T00:56:12.232Z,7.37
2019-02-14T00:58:46.123Z,8.50
2019-02-14T01:01:21.252Z,8.03
2019-02-14T01:03:56.774Z,7.83
2019-02-14T01:06:29.398Z,8.17
2019-02-14T01:09:03.028Z,7.03
2019-02-14T01:11:35.690Z,8.50
2019-02-14T01:14:08.226Z,7.93
2019-02-14T01:16:42.099Z,8.30
2019-02-14T01:19:15.505Z,8.50
2019-02-14T01:21:48.203Z,7.93
2019-02-14T01:24:21.856Z,7.80
2019-02-14T01:26:54.630Z,7.10
2019-02-14T01:29:28.270Z,7.00
2019-02-14T01:32:01.187Z,7.30
2019-02-14T01:34:33.995Z,6.77
2019-02-14T01:37:07.410Z,7.60
2019-02-14T01:39:40.350Z,7.43
2019-02-14T01:42:13.742Z,7.77
2019-02-14T01:44:53.026Z,7.32
2019-02-14T01:47:28.497Z,6.83
2019-02-14T01:50:07.608Z,7.60
2019-02-14T01:52:45.606Z,6.97
2019-02-14T01:55:20.195Z,6.90
2019-02-14T01:57:55.767Z,6.87
2019-02-14T02:00:30.504Z,6.57
2019-02-14T02:03:06.118Z,6.97
2019-02-14T02:05:50.452Z,6.30
2019-02-14T02:08:25.317Z,6.43
2019-02-14T02:11:06.659Z,6.40
2019-02-14T02:13:39.710Z,6.13
2019-02-14T02:16:13.754Z,7.10
2019-02-14T02:18:48.784Z,7.00
2019-02-14T02:21:21.612Z,7.47
2019-02-14T02:23:55.305Z,7.13
2019-02-14T02:26:28.556Z,6.43
2019-02-14T02:32:22.709Z,7.20
2019-02-14T02:34:56.083Z,6.73
2019-02-14T02:37:29.137Z,6.47
2019-02-14T02:40:05.217Z,6.63
2019-02-14T02:42:38.082Z,6.43
2019-02-14T02:45:13.985Z,6.37
2019-02-14T02:47:47.133Z,6.28
2019-02-14T02:50:20.141Z,6.07
2019-02-14T02:52:52.885Z,6.00
2019-02-14T02:55:26.564Z,5.80
2019-02-14T02:58:01.534Z,5.47
2019-02-14T03:00:35.332Z,5.87
2019-02-14T03:03:09.838Z,6.43
2019-02-14T03:05:44.360Z,5.83
2019-02-14T03:08:17.745Z,6.00
2019-02-14T03:10:51.173Z,6.30
2019-02-14T03:13:25.060Z,6.33
2019-02-14T03:15:57.702Z,6.20
2019-02-14T03:18:30.355Z,5.80
2019-02-14T03:21:03.731Z,6.20
2019-02-14T03:23:36.311Z,6.87
2019-02-14T03:26:09.106Z,6.83
2019-02-14T03:28:42.379Z,6.87
2019-02-14T03:31:15.354Z,7.20
2019-02-14T03:33:48.229Z,6.20
2019-02-14T03:36:21.915Z,6.73
2019-02-14T03:38:54.994Z,5.80
2019-02-14T03:41:28.315Z,6.50
2019-02-14T03:44:02.265Z,7.23
2019-02-14T03:46:34.832Z,7.07
2019-02-14T03:49:07.666Z,6.67
2019-02-14T03:51:41.445Z,7.20
2019-02-14T03:54:15.048Z,7.25
2019-02-14T03:56:47.865Z,6.70
2019-02-14T03:59:20.650Z,6.97
2019-02-14T04:01:53.276Z,6.83
2019-02-14T04:04:25.795Z,6.97
2019-02-14T04:06:59.074Z,7.40
2019-02-14T04:09:31.575Z,7.03
2019-02-14T04:12:04.630Z,6.50
2019-02-14T04:14:38.108Z,7.20
2019-02-14T04:17:10.784Z,7.10
2019-02-14T04:19:43.637Z,7.03
2019-02-14T04:22:17.798Z,6.60
2019-02-14T04:24:50.635Z,7.40
2019-02-14T04:27:24.633Z,7.50
2019-02-14T04:29:57.568Z,6.80
2019-02-14T04:32:30.357Z,7.77
2019-02-14T04:35:03.013Z,8.00
2019-02-14T04:37:36.065Z,7.50
2019-02-14T04:40:11.452Z,7.53
2019-02-14T04:42:45.331Z,8.95
2019-02-14T04:45:18.676Z,7.33
2019-02-14T04:47:51.426Z,7.13
2019-02-14T04:50:24.038Z,8.37
2019-02-14T04:52:57.233Z,8.67
2019-02-14T04:55:31.732Z,8.53
2019-02-14T04:58:04.831Z,8.70
2019-02-14T05:00:37.618Z,8.63
2019-02-14T05:03:10.250Z,9.03
2019-02-14T05:05:43.682Z,8.90
2019-02-14T05:08:18.366Z,8.63
2019-02-14T05:10:52.520Z,9.37
2019-02-14T05:13:26.477Z,8.50
2019-02-14T05:15:59.938Z,9.63
2019-02-14T05:18:33.499Z,10.98
2019-02-14T05:21:06.044Z,10.20
2019-02-14T05:23:40.312Z,10.03
2019-02-14T05:26:13.037Z,9.40
2019-02-14T05:28:45.947Z,8.60
2019-02-14T05:31:19.406Z,9.33
2019-02-14T05:33:52.878Z,8.63
2019-02-14T05:36:25.386Z,9.20
2019-02-14T05:38:58.378Z,10.13
2019-02-14T05:41:30.942Z,9.57
2019-02-14T05:44:03.595Z,10.00
2019-02-14T05:46:36.490Z,8.23
2019-02-14T05:49:09.352Z,8.00
2019-02-14T05:51:41.891Z,8.80
2019-02-14T05:54:14.931Z,9.03
2019-02-14T05:56:47.430Z,8.70
2019-02-14T05:59:20.061Z,9.83
2019-02-14T06:01:53.002Z,9.37
2019-02-14T06:04:25.582Z,9.27
2019-02-14T06:07:01.037Z,8.10
2019-02-14T06:09:34.220Z,7.30
2019-02-14T06:12:20.458Z,8.43
2019-02-14T06:14:53.375Z,9.52
2019-02-14T06:17:25.796Z,8.70
2019-02-14T06:19:59.679Z,9.00
2019-02-14T06:22:32.302Z,8.77
2019-02-14T06:25:05.192Z,9.07
2019-02-14T06:27:37.665Z,9.17
2019-02-14T06:30:14.912Z,8.87
2019-02-14T06:32:47.719Z,8.57
2019-02-14T06:35:21.705Z,9.10
2019-02-14T06:37:56.306Z,9.50
2019-02-14T06:40:31.062Z,8.87
2019-02-14T06:43:05.209Z,9.93
2019-02-14T06:45:38.564Z,9.77
2019-02-14T06:48:11.995Z,10.77
2019-02-14T06:50:45.695Z,11.32
2019-02-14T06:53:19.979Z,10.83
2019-02-14T06:55:52.585Z,10.10
2019-02-14T06:58:25.510Z,10.70
2019-02-14T07:00:58.135Z,10.10
2019-02-14T07:03:33.295Z,10.47
2019-02-14T07:06:06.515Z,10.00
2019-02-14T07:08:39.930Z,10.50
2019-02-14T07:11:12.503Z,10.20
2019-02-14T07:13:45.090Z,10.10
2019-02-14T07:16:18.072Z,10.80
2019-02-14T07:18:52.458Z,10.30
2019-02-14T07:21:27.403Z,10.73
2019-02-14T07:24:01.457Z,9.30
2019-02-14T07:26:34.137Z,10.43
2019-02-14T07:29:06.644Z,11.05
2019-02-14T07:31:39.195Z,10.97
2019-02-14T07:34:13.005Z,10.87
2019-02-14T07:36:46.781Z,9.80
2019-02-14T07:39:21.067Z,10.07
2019-02-14T07:41:57.041Z,9.60
2019-02-14T07:44:31.450Z,10.90
2019-02-14T07:47:05.103Z,9.93
2019-02-14T07:49:40.611Z,10.97
2019-02-14T07:52:15.301Z,12.20
2019-02-14T07:54:48.042Z,11.82
2019-02-14T07:57:21.442Z,10.30
2019-02-14T07:59:54.748Z,10.00
2019-02-14T08:02:27.327Z,10.63
2019-02-14T08:05:00.445Z,10.90
2019-02-14T08:07:36.187Z,10.70
2019-02-14T08:10:11.650Z,9.93
2019-02-14T08:12:44.823Z,8.93
2019-02-14T08:15:17.713Z,9.73
2019-02-14T08:17:51.129Z,9.87
2019-02-14T08:20:25.048Z,9.63
2019-02-14T08:22:58.178Z,9.20
2019-02-14T08:25:30.745Z,8.57
2019-02-14T08:28:03.768Z,9.77
2019-02-14T08:30:36.364Z,9.97
2019-02-14T08:33:09.735Z,9.40
2019-02-14T08:35:51.537Z,9.23
2019-02-14T08:38:24.642Z,8.53
2019-02-14T08:40:57.582Z,9.17
2019-02-14T08:43:32.378Z,8.83
2019-02-14T08:46:05.150Z,8.32
2019-02-14T08:48:37.833Z,7.53
2019-02-14T08:51:13.976Z,7.83
2019-02-14T08:53:47.031Z,6.73
2019-02-14T08:56:19.657Z,5.57
2019-02-14T08:58:52.686Z,5.90
2019-02-14T09:01:25.256Z,5.50
2019-02-14T09:04:00.285Z,5.13
2019-02-14T09:06:36.094Z,5.50
2019-02-14T09:09:09.548Z,5.27
2019-02-14T09:11:42.674Z,5.10
2019-02-14T09:14:17.806Z,4.40
2019-02-14T09:16:51.586Z,3.80
2019-02-14T09:19:24.187Z,3.37
2019-02-14T09:21:58.481Z,2.93
2019-02-14T09:24:31.171Z,4.27
2019-02-14T09:27:04.382Z,3.30
2019-02-14T09:29:39.372Z,3.20
2019-02-14T09:32:19.638Z,2.90
2019-02-14T09:34:54.487Z,2.50
2019-02-14T09:37:30.037Z,2.60
2019-02-14T09:40:08.257Z,2.20
2019-02-14T09:42:42.462Z,2.40
2019-02-14T09:45:18.327Z,2.60
2019-02-14T09:47:54.206Z,2.77
2019-02-14T09:50:26.971Z,2.50
2019-02-14T09:53:01.733Z,2.20
2019-02-14T09:55:36.591Z,2.00
2019-02-14T09:58:09.127Z,2.17
2019-02-14T10:00:43.122Z,1.73
2019-02-14T10:03:16.712Z,2.20
2019-02-14T10:05:58.534Z,2.20
2019-02-14T10:08:33.536Z,2.10
2019-02-14T10:11:10.606Z,2.30
2019-02-14T10:13:46.079Z,1.90
2019-02-14T10:16:19.042Z,1.83
2019-02-14T10:18:51.922Z,1.90
2019-02-14T10:21:26.242Z,2.17
2019-02-14T10:23:58.825Z,2.10
2019-02-14T10:26:34.246Z,1.77
2019-02-14T10:29:10.048Z,1.70
2019-02-14T10:31:43.291Z,1.60
2019-02-14T10:34:15.692Z,1.77
2019-02-14T10:36:48.892Z,1.80
2019-02-14T10:39:21.534Z,1.90
2019-02-14T10:41:54.579Z,1.47
2019-02-14T10:44:28.557Z,1.70
2019-02-14T10:47:01.883Z,1.73
2019-02-14T10:49:36.550Z,1.20
2019-02-14T10:52:11.254Z,1.27
2019-02-14T10:54:45.663Z,1.40
2019-02-14T10:57:20.382Z,1.27
2019-02-14T10:59:55.103Z,1.20
2019-02-14T11:02:30.243Z,1.27
2019-02-14T11:05:06.321Z,1.20
2019-02-14T11:07:42.183Z,1.30
2019-02-14T11:10:15.470Z,1.30
2019-02-14T11:12:48.542Z,1.30
2019-02-14T11:15:22.587Z,1.60
2019-02-14T11:17:56.014Z,1.40
2019-02-14T11:20:28.359Z,1.73
2019-02-14T11:23:01.881Z,1.60
2019-02-14T11:25:35.621Z,1.50
2019-02-14T11:28:09.554Z,1.27
2019-02-14T11:30:42.556Z,1.50
2019-02-14T11:33:19.907Z,1.50
2019-02-14T11:35:53.023Z,1.30
2019-02-14T11:38:29.295Z,1.50
2019-02-14T11:41:02.771Z,1.53
2019-02-14T11:43:37.983Z,1.70
2019-02-14T11:46:10.675Z,1.60
2019-02-14T11:48:47.934Z,2.90
2019-02-14T11:51:23.475Z,1.90
2019-02-14T11:54:01.369Z,1.67
2019-02-14T11:56:38.270Z,1.67
2019-02-14T11:59:11.527Z,1.50
2019-02-14T12:01:45.206Z,1.80
2019-02-14T12:04:17.606Z,1.50
2019-02-14T12:06:55.061Z,1.80
2019-02-14T12:09:36.625Z,1.40
2019-02-14T12:12:13.609Z,1.73
2019-02-14T12:14:46.047Z,1.90
2019-02-14T12:17:23.980Z,1.70
2019-02-14T12:19:58.630Z,1.70
2019-02-14T12:22:33.930Z,1.77
2019-02-14T12:25:11.537Z,1.60
2019-02-14T12:27:44.025Z,1.70
2019-02-14T12:30:18.451Z,1.50
2019-02-14T12:32:51.179Z,1.40
2019-02-14T12:35:24.611Z,1.40
2019-02-14T12:37:59.094Z,1.23
2019-02-14T12:40:34.432Z,1.42
2019-02-14T12:43:07.403Z,1.40
2019-02-14T12:45:42.293Z,1.03
2019-02-14T12:48:18.882Z,1.40
2019-02-14T12:50:52.363Z,1.60
2019-02-14T12:53:25.438Z,1.80
2019-02-14T12:55:58.304Z,1.30
2019-02-14T12:58:30.762Z,1.30
2019-02-14T13:01:03.372Z,1.17
2019-02-14T13:03:38.990Z,1.20
2019-02-14T13:06:12.257Z,0.80
2019-02-14T13:08:47.932Z,1.43
2019-02-14T13:11:20.326Z,1.10
2019-02-14T13:13:55.182Z,1.10
2019-02-14T13:16:30.287Z,1.40
2019-02-14T13:19:06.505Z,1.17
2019-02-14T13:21:39.441Z,1.10
2019-02-14T13:24:16.737Z,0.83
2019-02-14T13:26:55.284Z,1.10
2019-02-14T13:29:29.563Z,2.47
2019-02-14T13:32:03.545Z,0.80
2019-02-14T13:34:35.966Z,1.00
2019-02-14T13:37:09.102Z,1.13
2019-02-14T13:39:45.996Z,1.00
2019-02-14T13:42:18.555Z,1.20
2019-02-14T13:44:51.716Z,0.90
2019-02-14T13:47:27.312Z,1.00
2019-02-14T13:50:00.453Z,1.40
2019-02-14T13:52:33.372Z,1.40
2019-02-14T13:55:07.130Z,0.87
2019-02-14T13:57:39.752Z,1.10
2019-02-14T14:00:19.726Z,1.25
2019-02-14T14:02:52.142Z,1.00
2019-02-14T14:05:25.074Z,0.93
2019-02-14T14:07:58.597Z,1.00
2019-02-14T14:10:31.587Z,0.87
2019-02-14T14:13:05.793Z,1.23
2019-02-14T14:15:39.114Z,1.52
2019-02-14T14:18:12.070Z,1.10
2019-02-14T14:20:47.692Z,1.10
2019-02-14T14:23:21.638Z,0.97
2019-02-14T14:25:54.596Z,1.00
2019-02-14T14:28:26.980Z,1.10
2019-02-14T14:31:00.208Z,1.10
2019-02-14T14:33:33.239Z,0.90
2019-02-14T14:36:07.420Z,0.93
2019-02-14T14:38:40.390Z,0.60
2019-02-14T14:41:14.057Z,0.87
2019-02-14T14:44:09.858Z,0.90
2019-02-14T14:46:49.773Z,1.00
2019-02-14T14:49:24.002Z,1.07
2019-02-14T14:51:56.350Z,1.00
2019-02-14T14:54:29.694Z,1.40
2019-02-14T14:57:03.685Z,0.90
2019-02-14T14:59:38.713Z,0.80
2019-02-14T15:02:22.423Z,0.90
2019-02-14T15:05:06.477Z,0.70
2019-02-14T15:08:11.816Z,0.80
2019-02-14T15:10:53.617Z,1.00
2019-02-14T15:13:28.427Z,1.30
2019-02-14T15:16:00.880Z,1.00
2019-02-14T15:18:35.792Z,1.00
2019-02-14T15:21:11.754Z,1.00
2019-02-14T15:23:52.321Z,1.07
2019-02-14T15:26:26.927Z,1.13
2019-02-14T15:29:02.069Z,1.07
2019-02-14T15:31:35.200Z,1.23
2019-02-14T15:34:09.136Z,1.10
2019-02-14T15:36:54.815Z,1.30
2019-02-14T15:39:29.197Z,1.10
2019-02-14T15:42:03.221Z,1.10
2019-02-14T15:44:38.555Z,1.20
2019-02-14T15:47:11.016Z,1.20
2019-02-14T15:49:46.951Z,1.13
2019-02-14T15:52:22.923Z,1.00
2019-02-14T15:54:59.438Z,1.23
2019-02-14T15:57:32.576Z,0.90
2019-02-14T16:00:10.748Z,1.15
2019-02-14T16:02:50.276Z,1.00
2019-02-14T16:05:25.603Z,1.20
2019-02-14T16:08:23.843Z,1.30
2019-02-14T16:11:03.927Z,1.20
2019-02-14T16:13:37.385Z,1.10
2019-02-14T16:16:35.675Z,0.90
2019-02-14T16:19:46.956Z,1.00
2019-02-14T16:22:48.160Z,1.00
2019-02-14T16:25:50.020Z,1.30
2019-02-14T16:28:30.417Z,0.90
2019-02-14T16:31:03.570Z,1.03
2019-02-14T16:33:37.727Z,1.20
2019-02-14T16:36:11.898Z,1.27
2019-02-14T16:38:48.261Z,1.30
2019-02-14T16:41:24.478Z,1.00
2019-02-14T16:44:04.013Z,0.90
2019-02-14T16:46:36.625Z,1.20
2019-02-14T16:49:11.869Z,1.40
2019-02-14T16:51:48.277Z,1.90
2019-02-14T16:54:23.287Z,1.40
2019-02-14T16:56:57.415Z,1.50
2019-02-14T16:59:30.604Z,1.80
2019-02-14T17:02:05.709Z,1.50
2019-02-14T17:04:40.032Z,1.50
2019-02-14T17:07:13.738Z,1.40
2019-02-14T17:09:48.227Z,1.50
2019-02-14T17:12:21.924Z,1.60
2019-02-14T17:14:54.651Z,1.43
2019-02-14T17:17:30.245Z,1.53
2019-02-14T17:20:04.598Z,1.70
2019-02-14T17:22:37.485Z,1.30
2019-02-14T17:25:11.137Z,1.67
2019-02-14T17:27:45.323Z,1.33
2019-02-14T17:30:20.373Z,1.93
2019-02-14T17:32:53.251Z,1.70
2019-02-14T17:35:27.585Z,1.83
2019-02-14T17:38:01.118Z,1.77
2019-02-14T17:40:34.303Z,1.50
2019-02-14T17:43:08.536Z,1.80
2019-02-14T17:45:46.352Z,1.60
2019-02-14T17:48:30.127Z,1.70
2019-02-14T17:51:03.521Z,1.87
2019-02-14T17:53:37.205Z,2.00
2019-02-14T17:56:10.629Z,2.27
2019-02-14T17:58:44.821Z,2.20
2019-02-14T18:01:18.446Z,1.93
2019-02-14T18:03:52.113Z,1.80
2019-02-14T18:06:33.517Z,2.07
2019-02-14T18:09:08.998Z,2.00
2019-02-14T18:11:43.096Z,2.17
2019-02-14T18:14:18.695Z,5.70
2019-02-14T18:16:54.078Z,4.23
2019-02-14T18:19:30.898Z,2.83
2019-02-14T18:22:06.764Z,2.33
2019-02-14T18:24:45.762Z,1.87
2019-02-14T18:27:27.652Z,2.70
2019-02-14T18:30:00.422Z,1.80
2019-02-14T18:32:59.155Z,1.80
2019-02-14T18:35:34.986Z,1.57
2019-02-14T18:38:08.441Z,1.60
2019-02-14T18:40:42.505Z,1.77
2019-02-14T18:43:18.670Z,1.60
2019-02-14T18:45:58.954Z,1.73
2019-02-14T18:48:35.846Z,2.47
2019-02-14T18:51:10.849Z,1.73
2019-02-14T18:53:43.711Z,1.80
2019-02-14T18:56:18.494Z,1.63
2019-02-14T18:58:51.399Z,1.90
2019-02-14T19:01:24.560Z,2.10
2019-02-14T19:04:01.655Z,2.03
2019-02-14T19:06:36.988Z,1.77
2019-02-14T19:09:17.726Z,2.00
2019-02-14T19:11:54.612Z,2.00
2019-02-14T19:14:38.791Z,2.12
2019-02-14T19:17:13.851Z,2.20
2019-02-14T19:19:52.095Z,1.90
2019-02-14T19:22:28.388Z,2.30
2019-02-14T19:25:02.362Z,2.30
2019-02-14T19:27:38.449Z,2.00
2019-02-14T19:30:21.290Z,2.00
2019-02-14T19:32:57.269Z,2.00
2019-02-14T19:35:42.769Z,2.35
2019-02-14T19:38:15.747Z,2.10
2019-02-14T19:40:51.198Z,2.17
2019-02-14T19:43:27.348Z,2.37
2019-02-14T19:46:02.335Z,2.00
2019-02-14T19:48:35.751Z,2.17
2019-02-14T19:51:10.739Z,2.00
2019-02-14T19:53:47.238Z,2.00
2019-02-14T19:56:22.847Z,2.10
2019-02-14T19:58:58.786Z,2.60
2019-02-14T20:01:35.567Z,2.15
2019-02-14T20:04:12.322Z,2.50
2019-02-14T20:06:46.921Z,1.90
2019-02-14T20:09:19.750Z,2.30
2019-02-14T20:11:55.029Z,2.20
2019-02-14T20:14:30.863Z,2.53
2019-02-14T20:17:04.944Z,2.20
2019-02-14T20:19:37.776Z,2.90
2019-02-14T20:22:12.862Z,3.00
2019-02-14T20:24:46.462Z,2.67
2019-02-14T20:27:21.214Z,2.80
2019-02-14T20:29:58.155Z,2.90
2019-02-14T20:32:33.335Z,2.80
2019-02-14T20:35:07.892Z,2.57
2019-02-14T20:37:41.804Z,2.60
2019-02-14T20:40:15.149Z,2.70
2019-02-14T20:42:49.401Z,1.80
2019-02-14T20:45:23.333Z,2.33
2019-02-14T20:47:57.452Z,1.87
2019-02-14T20:50:34.872Z,2.00
2019-02-14T20:53:10.504Z,2.20
2019-02-14T20:55:49.303Z,2.30
2019-02-14T20:58:23.754Z,2.00
2019-02-14T21:00:59.907Z,2.20
2019-02-14T21:03:33.400Z,2.23
2019-02-14T21:06:07.309Z,2.00
2019-02-14T21:08:40.832Z,2.10
2019-02-14T21:11:15.843Z,2.10
2019-02-14T21:13:48.472Z,2.20
2019-02-14T21:16:22.443Z,2.20
2019-02-14T21:19:01.018Z,1.77
2019-02-14T21:21:35.767Z,2.30
2019-02-14T21:24:09.183Z,2.10
2019-02-14T21:26:45.313Z,2.23
2019-02-14T21:29:21.856Z,2.62
2019-02-14T21:31:56.978Z,2.53
2019-02-14T21:34:37.591Z,2.20
2019-02-14T21:37:13.932Z,2.20
2019-02-14T21:39:47.816Z,2.40
2019-02-14T21:42:22.517Z,2.23
2019-02-14T21:45:06.134Z,2.20
2019-02-14T21:47:40.569Z,2.17
2019-02-14T21:50:20.871Z,2.20
2019-02-14T21:52:54.732Z,1.98
2019-02-14T21:55:28.339Z,2.50
2019-02-14T21:58:04.974Z,1.90
2019-02-14T22:00:39.063Z,2.13
2019-02-14T22:03:19.974Z,2.10
2019-02-14T22:05:52.786Z,2.00
2019-02-14T22:08:26.854Z,2.35
2019-02-14T22:11:04.353Z,2.03
2019-02-14T22:13:37.567Z,2.20
2019-02-14T22:16:10.191Z,2.10
2019-02-14T22:18:45.904Z,2.03
2019-02-14T22:21:22.285Z,2.10
2019-02-14T22:23:54.838Z,2.00
2019-02-14T22:26:27.877Z,1.83
2019-02-14T22:29:02.338Z,2.07
2019-02-14T22:31:36.327Z,1.90
2019-02-14T22:34:10.390Z,1.98
2019-02-14T22:36:43.036Z,2.30
2019-02-14T22:39:15.684Z,2.03
2019-02-14T22:41:50.020Z,2.13
2019-02-14T22:44:22.771Z,1.90
2019-02-14T22:46:55.473Z,1.97
2019-02-14T22:49:28.644Z,2.50
2019-02-14T22:52:01.725Z,1.87
2019-02-14T22:54:35.536Z,2.10
2019-02-14T22:57:09.404Z,2.08
2019-02-14T22:59:45.951Z,2.17
2019-02-14T23:02:23.291Z,2.00
2019-02-14T23:05:05.345Z,2.35
2019-02-14T23:07:39.574Z,2.40
2019-02-14T23:10:13.564Z,2.53
2019-02-14T23:12:55.385Z,2.40
2019-02-14T23:15:29.347Z,2.00
2019-02-14T23:18:04.379Z,2.63
2019-02-14T23:20:37.170Z,2.00
2019-02-14T23:23:09.945Z,1.87
2019-02-14T23:25:44.079Z,1.80
2019-02-14T23:28:16.712Z,1.80
2019-02-14T23:30:49.287Z,1.80
2019-02-14T23:33:22.339Z,2.07
2019-02-14T23:35:54.901Z,2.03
2019-02-14T23:38:28.973Z,1.80
2019-02-14T23:41:03.054Z,1.60
2019-02-14T23:43:37.020Z,1.73
2019-02-14T23:46:11.209Z,1.90
2019-02-14T23:48:45.898Z,1.70
2019-02-14T23:51:18.691Z,1.77
2019-02-14T23:53:55.719Z,1.70
2019-02-14T23:56:32.675Z,1.90
2019-02-14T23:59:05.295Z,2.37
